HomeShort term forecast

Short term forecast

Graphical weather forecast for the next 48 hours for Montreal:
Short term forecast
This weather forecast is automatically refreshed every 3 hours.

Hourly Experimental Forecast for the next 48 hours

Overall summary: Partly cloudy throughout the day.

 Date & Hour   Temp   Feel   Baro   Hum   Speed & Bearing   Wind Gust   Precip.%   Precip.   Visibility   Cloud cover   Conditions 
 28/09/2022 - 15:00  17.0°C  17.0°C  1019.9 hPa  69%  15.8 km/h   22.8 km/h  7%  --  16.1km  72%  Mostly Cloudy 
 28/09/2022 - 16:00  16.6°C  16.6°C  1020.8 hPa  71%  16.2 km/h   23.3 km/h  5%  0.03 mm/h  16.1km  58%  Partly Cloudy 
 28/09/2022 - 17:00  15.8°C  15.8°C  1021.5 hPa  73%  16.1 km/h   23.6 km/h  5%  0.03 mm/h  16.1km  54%  Partly Cloudy 
 28/09/2022 - 18:00  14.5°C  14.5°C  1022.3 hPa  75%  15.7 km/h   26.9 km/h  3%  0.01 mm/h  16.1km  46%  Partly Cloudy 
 28/09/2022 - 19:00  13.1°C  13.1°C  1023.1 hPa  77%  13.6 km/h   27.7 km/h  3%  0.01 mm/h  16.1km  43%  Partly Cloudy 
 28/09/2022 - 20:00  12.3°C  12.3°C  1024.3 hPa  80%  12.5 km/h   25.9 km/h  3%  0.01 mm/h  16.1km  43%  Partly Cloudy 
 28/09/2022 - 21:00  11.7°C  11.7°C  1024.7 hPa  80%  12.2 km/h   23.3 km/h  0%  --  16.1km  39%  Partly Cloudy 
 28/09/2022 - 22:00  11.1°C  11.1°C  1025.4 hPa  80%  12.0 km/h   21.4 km/h  0%  --  16.1km  39%  Partly Cloudy 
 28/09/2022 - 23:00  10.7°C  10.7°C  1025.8 hPa  79%  11.2 km/h   20.2 km/h  0%  --  16.1km  43%  Partly Cloudy 
 29/09/2022 - 00:00  10.3°C  10.3°C  1026.1 hPa  79%  10.8 km/h   19.1 km/h  0%  --  16.1km  51%  Partly Cloudy 
 29/09/2022 - 01:00  10.0°C  8.5°C  1026.5 hPa  78%  10.6 km/h   20.1 km/h  0%  --  16.1km  72%  Mostly Cloudy 
 29/09/2022 - 02:00  9.5°C  8.0°C  1026.8 hPa  78%  10.2 km/h   18.5 km/h  0%  --  16.1km  73%  Mostly Cloudy 
 29/09/2022 - 03:00  9.1°C  7.5°C  1026.9 hPa  77%  10.1 km/h   19.2 km/h  0%  --  16.1km  70%  Mostly Cloudy 
 29/09/2022 - 04:00  8.4°C  6.8°C  1027.4 hPa  75%  9.9 km/h   16.5 km/h  0%  --  16.1km  59%  Partly Cloudy 
 29/09/2022 - 05:00  8.0°C  6.3°C  1027.9 hPa  75%  9.9 km/h   16.8 km/h  0%  --  16.1km  59%  Partly Cloudy 
 29/09/2022 - 06:00  7.6°C  5.9°C  1028.5 hPa  75%  9.8 km/h   16.3 km/h  0%  --  16.1km  61%  Mostly Cloudy 
 29/09/2022 - 07:00  7.3°C  5.5°C  1029.5 hPa  76%  9.4 km/h   15.1 km/h  0%  --  16.1km  61%  Mostly Cloudy 
 29/09/2022 - 08:00  7.2°C  5.5°C  1030.2 hPa  75%  9.0 km/h   14.6 km/h  0%  --  16.1km  57%  Partly Cloudy 
 29/09/2022 - 09:00  7.8°C  6.3°C  1030.7 hPa  73%  8.8 km/h   13.7 km/h  0%  --  16.1km  65%  Mostly Cloudy 
 29/09/2022 - 10:00  8.7°C  7.4°C  1031.3 hPa  70%  8.4 km/h   10.9 km/h  0%  --  16.1km  61%  Mostly Cloudy 
 29/09/2022 - 11:00  9.6°C  8.6°C  1031.4 hPa  68%  7.6 km/h   9.1 km/h  0%  --  16.1km  49%  Partly Cloudy 
 29/09/2022 - 12:00  10.4°C  10.4°C  1031.3 hPa  66%  8.1 km/h   10.1 km/h  0%  --  16.1km  54%  Partly Cloudy 
 29/09/2022 - 13:00  11.0°C  11.0°C  1031.0 hPa  63%  8.3 km/h   10.7 km/h  0%  --  16.1km  44%  Partly Cloudy 
 29/09/2022 - 14:00  11.9°C  11.9°C  1030.4 hPa  60%  8.8 km/h   11.8 km/h  0%  --  16.1km  45%  Partly Cloudy 
 29/09/2022 - 15:00  12.8°C  12.8°C  1029.9 hPa  57%  9.2 km/h   12.5 km/h  0%  --  16.1km  32%  Partly Cloudy 
 29/09/2022 - 16:00  13.4°C  13.4°C  1029.4 hPa  55%  9.6 km/h   12.7 km/h  0%  --  16.1km  25%  Clear 
 29/09/2022 - 17:00  13.4°C  13.4°C  1029.2 hPa  57%  10.0 km/h   12.3 km/h  0%  --  16.1km  22%  Clear 
 29/09/2022 - 18:00  12.6°C  12.6°C  1029.1 hPa  62%  10.1 km/h   15.0 km/h  0%  --  16.1km  28%  Clear 
 29/09/2022 - 19:00  11.3°C  11.3°C  1029.2 hPa  67%  9.8 km/h   16.4 km/h  0%  --  16.1km  21%  Clear 
 29/09/2022 - 20:00  10.6°C  10.6°C  1029.4 hPa  71%  9.5 km/h   16.6 km/h  0%  --  16.1km  20%  Clear 
 29/09/2022 - 21:00  10.0°C  8.7°C  1029.5 hPa  73%  9.4 km/h   16.7 km/h  0%  --  16.1km  16%  Clear 
 29/09/2022 - 22:00  9.5°C  8.3°C  1029.6 hPa  74%  9.1 km/h   16.0 km/h  0%  --  16.1km  22%  Clear 
 29/09/2022 - 23:00  9.1°C  7.8°C  1029.6 hPa  73%  8.7 km/h   15.2 km/h  0%  --  16.1km  19%  Clear 
 30/09/2022 - 00:00  8.7°C  7.4°C  1029.5 hPa  72%  8.1 km/h   13.6 km/h  0%  --  16.1km  15%  Clear 
 30/09/2022 - 01:00  8.3°C  7.1°C  1029.3 hPa  71%  7.5 km/h   11.5 km/h  0%  --  16.1km  12%  Clear 
 30/09/2022 - 02:00  7.9°C  6.8°C  1029.1 hPa  69%  7.1 km/h   11.2 km/h  0%  --  16.1km  10%  Clear 
 30/09/2022 - 03:00  7.4°C  6.3°C  1028.9 hPa  69%  6.9 km/h   10.5 km/h  0%  --  16.1km  3%  Clear 
 30/09/2022 - 04:00  6.9°C  5.6°C  1028.7 hPa  68%  6.9 km/h   10.1 km/h  0%  --  16.1km  4%  Clear 
 30/09/2022 - 05:00  6.4°C  5.1°C  1028.8 hPa  69%  6.9 km/h   10.0 km/h  0%  --  16.1km  4%  Clear 
 30/09/2022 - 06:00  6.0°C  4.5°C  1029.0 hPa  71%  7.5 km/h   11.0 km/h  0%  --  16.1km  5%  Clear 
 30/09/2022 - 07:00  5.7°C  4.0°C  1029.4 hPa  73%  7.9 km/h   12.4 km/h  0%  --  16.1km  5%  Clear 
 30/09/2022 - 08:00  6.1°C  4.4°C  1030.0 hPa  74%  8.4 km/h   12.9 km/h  0%  --  16.1km  4%  Clear 
 30/09/2022 - 09:00  7.6°C  6.0°C  1030.0 hPa  73%  9.1 km/h   13.1 km/h  0%  --  16.1km  3%  Clear 
 30/09/2022 - 10:00  9.7°C  8.4°C  1029.8 hPa  69%  9.7 km/h   13.7 km/h  0%  --  16.1km  4%  Clear 
 30/09/2022 - 11:00  11.4°C  11.4°C  1029.5 hPa  66%  10.4 km/h   14.1 km/h  0%  --  16.1km  3%  Clear 
 30/09/2022 - 12:00  12.8°C  12.8°C  1028.9 hPa  63%  11.1 km/h   14.2 km/h  0%  --  16.1km  7%  Clear 
 30/09/2022 - 13:00  13.9°C  13.9°C  1028.1 hPa  60%  11.5 km/h   13.6 km/h  0%  --  16.1km  10%  Clear 
 30/09/2022 - 14:00  15.0°C  15.0°C  1027.1 hPa  59%  11.8 km/h   13.7 km/h  0%  --  16.1km  15%  Clear 

 

Past weather and reports

Past weatherFind in this section the past weather conditions, weather archive, graphics, reports and statistics.

Current conditions

Current weather condition for MontrealAll you need to know about the current weather conditions for Montreal. Weather data is updated every 10 minutes.

Weather forecast

Current Montreal weatherSince 2004, celinium.com website has provided accurate weather forecast for Montreal's island.